createdAt,value
2022-10-19T00:01:48.502Z,11.40
2022-10-19T00:04:17.941Z,14.10
2022-10-19T00:06:48.023Z,7.35
2022-10-19T00:09:20.867Z,13.45
2022-10-19T00:11:52.354Z,14.10
2022-10-19T00:14:24.999Z,11.23
2022-10-19T00:16:56.324Z,17.67
2022-10-19T00:19:28.399Z,14.02
2022-10-19T00:21:58.239Z,31.30
2022-10-19T00:24:27.656Z,7.75
2022-10-19T00:26:56.914Z,10.25
2022-10-19T00:29:26.269Z,14.75
2022-10-19T00:31:55.699Z,8.10
2022-10-19T00:34:24.958Z,9.25
2022-10-19T00:36:54.219Z,8.63
2022-10-19T00:39:23.511Z,10.32
2022-10-19T00:41:52.873Z,9.75
2022-10-19T00:44:22.050Z,11.48
2022-10-19T00:46:53.182Z,8.95
2022-10-19T00:49:28.441Z,8.05
2022-10-19T00:52:00.973Z,12.10
2022-10-19T00:54:30.524Z,15.88
2022-10-19T00:57:01.156Z,9.68
2022-10-19T00:59:31.858Z,13.98
2022-10-19T01:02:02.239Z,7.75
2022-10-19T01:04:33.450Z,13.45
2022-10-19T01:07:04.672Z,8.02
2022-10-19T01:09:33.975Z,11.63
2022-10-19T01:12:29.456Z,7.80
2022-10-19T01:15:34.220Z,10.00
2022-10-19T01:18:21.024Z,8.50
2022-10-19T01:21:21.280Z,12.73
2022-10-19T01:24:20.678Z,10.13
2022-10-19T01:27:22.447Z,8.25
2022-10-19T01:30:18.978Z,6.70
2022-10-19T01:33:07.110Z,10.27
2022-10-19T01:35:47.906Z,9.20
2022-10-19T01:38:40.771Z,12.10
2022-10-19T01:44:02.392Z,8.45
2022-10-19T01:46:42.070Z,6.72
2022-10-19T01:49:27.967Z,11.70
2022-10-19T01:52:02.040Z,9.15
2022-10-19T01:54:35.808Z,15.60
2022-10-19T01:57:08.739Z,9.13
2022-10-19T01:59:40.138Z,8.20
2022-10-19T02:02:12.998Z,8.82
2022-10-19T02:04:43.675Z,6.80
2022-10-19T02:07:14.487Z,10.57
2022-10-19T02:09:43.903Z,12.05
2022-10-19T02:12:14.968Z,11.43
2022-10-19T02:14:48.760Z,11.48
2022-10-19T02:17:22.442Z,10.45
2022-10-19T02:19:51.746Z,9.13
2022-10-19T02:22:21.080Z,14.55
2022-10-19T02:24:50.373Z,7.38
2022-10-19T02:27:20.151Z,12.52
2022-10-19T02:29:49.659Z,11.93
2022-10-19T02:32:19.200Z,11.75
2022-10-19T02:34:48.772Z,9.00
2022-10-19T02:37:20.932Z,8.48
2022-10-19T02:39:52.797Z,11.25
2022-10-19T02:42:31.869Z,12.48
2022-10-19T02:45:12.247Z,12.07
2022-10-19T02:47:56.723Z,8.27
2022-10-19T02:50:26.297Z,9.10
2022-10-19T02:52:55.638Z,11.05
2022-10-19T02:55:24.952Z,14.68
2022-10-19T02:57:54.774Z,9.80
2022-10-19T03:00:24.070Z,10.55
2022-10-19T03:02:54.060Z,9.05
2022-10-19T03:05:23.360Z,9.60
2022-10-19T03:07:52.631Z,10.20
2022-10-19T03:10:21.947Z,10.88
2022-10-19T03:12:51.286Z,14.18
2022-10-19T03:15:24.781Z,13.23
2022-10-19T03:17:56.332Z,12.52
2022-10-19T03:20:25.719Z,10.97
2022-10-19T03:22:54.967Z,11.18
2022-10-19T03:25:24.202Z,13.45
2022-10-19T03:27:55.815Z,10.80
2022-10-19T03:30:25.142Z,14.10
2022-10-19T03:32:54.489Z,15.95
2022-10-19T03:35:23.806Z,11.75
2022-10-19T03:37:53.123Z,16.17
2022-10-19T03:40:22.375Z,16.13
2022-10-19T03:42:51.631Z,18.45
2022-10-19T03:45:20.976Z,15.30
2022-10-19T03:47:54.270Z,13.00
2022-10-19T03:50:23.902Z,15.95
2022-10-19T03:52:53.353Z,10.50
2022-10-19T03:55:22.825Z,14.02
2022-10-19T03:57:52.109Z,13.48
2022-10-19T04:00:21.475Z,15.65
2022-10-19T04:02:50.987Z,14.38
2022-10-19T04:05:20.220Z,17.83
2022-10-19T04:07:49.578Z,15.40
2022-10-19T04:10:18.886Z,18.65
2022-10-19T04:12:53.019Z,19.17
2022-10-19T04:15:23.275Z,16.67
2022-10-19T04:17:52.538Z,17.90
2022-10-19T04:20:21.780Z,17.65
2022-10-19T04:22:51.047Z,16.15
2022-10-19T04:25:20.461Z,17.20
2022-10-19T04:27:49.724Z,20.50
2022-10-19T04:30:19.237Z,21.27
2022-10-19T04:32:48.515Z,17.77
2022-10-19T04:35:17.886Z,17.90
2022-10-19T04:37:47.238Z,21.67
2022-10-19T04:40:16.519Z,18.10
2022-10-19T04:42:45.852Z,17.17
2022-10-19T04:45:15.135Z,14.30
2022-10-19T04:47:44.404Z,17.80
2022-10-19T04:50:13.696Z,15.70
2022-10-19T04:52:42.979Z,16.80
2022-10-19T04:55:12.396Z,14.77
2022-10-19T04:57:41.715Z,20.00
2022-10-19T05:00:11.691Z,15.30
2022-10-19T05:02:45.838Z,21.30
2022-10-19T05:05:18.502Z,12.25
2022-10-19T05:07:47.768Z,14.38
2022-10-19T05:10:17.042Z,14.32
2022-10-19T05:12:46.447Z,11.73
2022-10-19T05:15:15.739Z,11.43
2022-10-19T05:17:45.004Z,15.02
2022-10-19T05:20:14.494Z,10.45
2022-10-19T05:22:43.799Z,13.65
2022-10-19T05:25:13.095Z,14.05
2022-10-19T05:27:42.431Z,12.30
2022-10-19T05:30:14.322Z,12.60
2022-10-19T05:32:43.570Z,11.63
2022-10-19T05:35:12.842Z,11.20
2022-10-19T05:37:42.226Z,9.32
2022-10-19T05:40:12.507Z,11.77
2022-10-19T05:42:41.759Z,13.25
2022-10-19T05:45:11.392Z,11.80
2022-10-19T05:47:40.663Z,13.07
2022-10-19T05:50:10.337Z,14.68
2022-10-19T05:52:39.626Z,12.68
2022-10-19T05:55:09.523Z,13.10
2022-10-19T05:57:39.283Z,12.52
2022-10-19T06:00:08.906Z,10.25
2022-10-19T06:05:10.596Z,11.85
2022-10-19T06:07:39.824Z,11.05
2022-10-19T06:10:10.300Z,11.07
2022-10-19T06:12:40.462Z,9.63
2022-10-19T06:15:10.323Z,12.40
2022-10-19T06:17:39.651Z,12.55
2022-10-19T06:20:09.357Z,13.52
2022-10-19T06:22:38.646Z,14.52
2022-10-19T06:25:08.333Z,13.88
2022-10-19T06:27:37.947Z,12.90
2022-10-19T06:30:08.143Z,14.57
2022-10-19T06:32:37.444Z,10.60
2022-10-19T06:35:06.872Z,14.57
2022-10-19T06:37:36.442Z,12.40
2022-10-19T06:40:07.318Z,11.30
2022-10-19T06:42:39.007Z,11.07
2022-10-19T06:45:13.041Z,13.13
2022-10-19T06:47:42.468Z,16.33
2022-10-19T06:50:12.039Z,11.93
2022-10-19T06:52:41.448Z,12.77
2022-10-19T06:55:11.123Z,10.90
2022-10-19T06:57:40.445Z,10.93
2022-10-19T07:00:10.494Z,10.43
2022-10-19T07:02:39.823Z,12.90
2022-10-19T07:05:10.240Z,14.30
2022-10-19T07:07:39.582Z,11.65
2022-10-19T07:10:09.253Z,13.60
2022-10-19T07:12:38.547Z,9.98
2022-10-19T07:15:08.442Z,9.38
2022-10-19T07:17:37.747Z,9.32
2022-10-19T07:20:07.431Z,10.38
2022-10-19T07:22:36.708Z,9.55
2022-10-19T07:25:06.272Z,9.48
2022-10-19T07:27:40.572Z,9.73
2022-10-19T07:30:10.528Z,10.10
2022-10-19T07:32:44.399Z,9.77
2022-10-19T07:35:16.174Z,11.43
2022-10-19T07:37:45.512Z,11.18
2022-10-19T07:40:15.596Z,9.23
2022-10-19T07:42:44.832Z,11.45
2022-10-19T07:45:14.174Z,13.07
2022-10-19T07:47:43.491Z,11.75
2022-10-19T07:50:12.850Z,11.75
2022-10-19T07:52:42.401Z,11.85
2022-10-19T07:55:12.312Z,8.52
2022-10-19T07:57:43.646Z,7.50
2022-10-19T08:00:14.947Z,11.82
2022-10-19T08:02:57.802Z,11.15
2022-10-19T08:05:37.931Z,9.80
2022-10-19T08:08:07.633Z,8.63
2022-10-19T08:10:36.896Z,8.15
2022-10-19T08:13:06.194Z,6.80
2022-10-19T08:15:35.455Z,9.07
2022-10-19T08:18:04.775Z,6.00
2022-10-19T08:20:34.053Z,11.73
2022-10-19T08:23:03.347Z,13.50
2022-10-19T08:25:32.654Z,5.38
2022-10-19T08:28:01.990Z,7.55
2022-10-19T08:30:31.368Z,8.55
2022-10-19T08:33:00.619Z,5.13
2022-10-19T08:35:30.095Z,5.93
2022-10-19T08:38:02.671Z,3.25
2022-10-19T08:40:33.347Z,7.88
2022-10-19T08:43:15.828Z,8.95
2022-10-19T08:45:53.879Z,6.93
2022-10-19T08:48:29.802Z,5.43
2022-10-19T08:51:00.871Z,6.35
2022-10-19T08:53:40.208Z,7.93
2022-10-19T08:56:49.778Z,6.60
2022-10-19T08:59:17.815Z,9.18
2022-10-19T09:02:07.576Z,5.47
2022-10-19T09:04:44.478Z,7.78
2022-10-19T09:07:37.526Z,5.05
2022-10-19T09:10:21.319Z,4.63
2022-10-19T09:13:00.467Z,7.97
2022-10-19T09:15:37.102Z,6.55
2022-10-19T09:18:06.472Z,6.28
2022-10-19T09:20:45.715Z,5.20
2022-10-19T09:23:44.225Z,4.40
2022-10-19T09:26:19.958Z,4.15
2022-10-19T09:29:01.497Z,10.73
2022-10-19T09:31:39.643Z,5.88
2022-10-19T09:34:19.909Z,7.78
2022-10-19T09:37:00.483Z,6.90
2022-10-19T09:39:32.345Z,7.68
2022-10-19T09:42:07.959Z,3.67
2022-10-19T09:44:37.586Z,8.90
2022-10-19T09:47:37.621Z,4.93
2022-10-19T09:50:32.224Z,7.28
2022-10-19T09:53:07.064Z,2.15
2022-10-19T09:55:42.042Z,6.30
2022-10-19T09:58:17.084Z,5.50
2022-10-19T10:00:50.751Z,1.50
2022-10-19T10:03:40.809Z,3.47
2022-10-19T10:06:20.778Z,4.78
2022-10-19T10:08:58.827Z,7.72
2022-10-19T10:11:35.208Z,5.53
2022-10-19T10:14:29.831Z,3.33
2022-10-19T10:17:04.097Z,5.07
2022-10-19T10:19:36.168Z,4.95
2022-10-19T10:22:06.901Z,7.25
2022-10-19T10:24:37.288Z,6.90
2022-10-19T10:27:09.263Z,6.47
2022-10-19T10:29:40.424Z,6.85
2022-10-19T10:32:15.824Z,5.80
2022-10-19T10:34:54.993Z,6.20
2022-10-19T10:37:43.213Z,5.78
2022-10-19T10:40:39.075Z,8.05
2022-10-19T10:43:19.445Z,6.00
2022-10-19T10:45:51.429Z,5.80
2022-10-19T10:48:34.809Z,6.07
2022-10-19T10:51:05.255Z,5.82
2022-10-19T10:53:38.026Z,4.72
2022-10-19T10:56:22.001Z,11.50
2022-10-19T10:58:58.176Z,3.90
2022-10-19T11:01:33.252Z,2.15
2022-10-19T11:04:08.189Z,5.78
2022-10-19T11:06:44.747Z,7.65
2022-10-19T11:09:38.828Z,8.13
2022-10-19T11:12:15.157Z,2.70
2022-10-19T11:14:56.540Z,6.68
2022-10-19T11:17:33.905Z,4.07
2022-10-19T11:20:03.406Z,3.65
2022-10-19T11:22:43.232Z,9.07
2022-10-19T11:25:33.836Z,4.50
2022-10-19T11:28:21.906Z,10.25
2022-10-19T11:31:09.396Z,6.22
2022-10-19T11:34:08.320Z,4.60
2022-10-19T11:37:02.421Z,2.55
2022-10-19T11:40:04.679Z,8.50
2022-10-19T11:42:58.788Z,4.45
2022-10-19T11:45:52.879Z,7.50
2022-10-19T11:48:41.705Z,7.53
2022-10-19T11:51:22.401Z,4.00
2022-10-19T11:53:56.976Z,5.30
2022-10-19T11:57:01.569Z,6.13
2022-10-19T12:00:08.150Z,3.13
2022-10-19T12:03:13.480Z,4.75
2022-10-19T12:06:13.708Z,3.47
2022-10-19T12:09:00.416Z,5.18
2022-10-19T12:11:55.726Z,5.53
2022-10-19T12:14:29.233Z,3.72
2022-10-19T12:17:05.779Z,5.97
2022-10-19T12:19:42.675Z,7.13
2022-10-19T12:22:18.482Z,5.97
2022-10-19T12:24:47.856Z,1.77
2022-10-19T12:27:21.779Z,4.72
2022-10-19T12:29:52.360Z,6.30
2022-10-19T12:32:27.472Z,3.30
2022-10-19T12:35:07.303Z,4.35
2022-10-19T12:38:00.731Z,4.40
2022-10-19T12:40:45.695Z,5.53
2022-10-19T12:43:59.094Z,6.28
2022-10-19T12:46:42.614Z,3.10
2022-10-19T12:49:33.544Z,2.95
2022-10-19T12:52:04.427Z,8.20
2022-10-19T12:54:40.262Z,3.90
2022-10-19T12:57:36.474Z,6.88
2022-10-19T13:00:22.765Z,6.32
2022-10-19T13:03:02.187Z,4.05
2022-10-19T13:05:33.277Z,3.50
2022-10-19T13:08:12.082Z,7.00
2022-10-19T13:10:43.883Z,8.00
2022-10-19T13:13:51.573Z,8.95
2022-10-19T13:16:33.007Z,7.85
2022-10-19T13:19:02.255Z,9.80
2022-10-19T13:21:49.001Z,8.25
2022-10-19T13:24:27.622Z,10.27
2022-10-19T13:27:05.717Z,4.60
2022-10-19T13:29:41.229Z,7.40
2022-10-19T13:32:38.355Z,8.05
2022-10-19T13:35:28.555Z,4.43
2022-10-19T13:38:19.828Z,5.15
2022-10-19T13:40:52.149Z,6.97
2022-10-19T13:46:13.032Z,8.20
2022-10-19T13:49:03.763Z,6.03
2022-10-19T13:51:48.354Z,7.53
2022-10-19T13:54:54.819Z,5.43
2022-10-19T13:57:39.419Z,6.60
2022-10-19T14:00:22.423Z,10.00
2022-10-19T14:03:23.865Z,5.35
2022-10-19T14:06:11.511Z,4.15
2022-10-19T14:09:07.718Z,6.40
2022-10-19T14:11:40.466Z,4.70
2022-10-19T14:14:31.203Z,6.78
2022-10-19T14:17:04.443Z,7.10
2022-10-19T14:19:46.199Z,5.88
2022-10-19T14:22:29.830Z,6.63
2022-10-19T14:25:04.978Z,6.90
2022-10-19T14:27:34.920Z,2.92
2022-10-19T14:30:04.881Z,10.25
2022-10-19T14:32:36.774Z,4.43
2022-10-19T14:35:18.899Z,6.03
2022-10-19T14:37:48.256Z,3.00
2022-10-19T14:40:40.093Z,4.75
2022-10-19T14:43:31.827Z,7.40
2022-10-19T14:46:12.802Z,4.28
2022-10-19T14:48:51.047Z,4.50
2022-10-19T14:51:41.248Z,4.22
2022-10-19T14:54:40.570Z,7.75
2022-10-19T14:57:15.679Z,4.97
2022-10-19T14:59:55.970Z,6.28
2022-10-19T15:02:31.231Z,4.40
2022-10-19T15:05:03.712Z,7.45
2022-10-19T15:07:41.660Z,6.10
2022-10-19T15:10:19.948Z,6.07
2022-10-19T15:12:50.389Z,6.75
2022-10-19T15:15:27.584Z,5.03
2022-10-19T15:18:16.345Z,2.55
2022-10-19T15:21:16.303Z,6.03
2022-10-19T15:23:48.465Z,3.75
2022-10-19T15:26:20.588Z,4.93
2022-10-19T15:28:50.835Z,5.25
2022-10-19T15:31:24.194Z,4.28
2022-10-19T15:33:56.031Z,5.05
2022-10-19T15:36:26.880Z,4.93
2022-10-19T15:39:24.590Z,5.03
2022-10-19T15:41:54.698Z,5.07
2022-10-19T15:44:45.591Z,5.45
2022-10-19T15:47:19.131Z,7.03
2022-10-19T15:49:50.014Z,7.28
2022-10-19T15:52:23.880Z,3.38
2022-10-19T15:54:55.755Z,4.50
2022-10-19T15:57:29.167Z,5.18
2022-10-19T16:00:00.132Z,4.47
2022-10-19T16:02:29.661Z,7.13
2022-10-19T16:04:59.036Z,4.15
2022-10-19T16:07:35.319Z,7.30
2022-10-19T16:10:05.041Z,7.28
2022-10-19T16:12:34.376Z,2.47
2022-10-19T16:15:03.696Z,6.50
2022-10-19T16:17:33.347Z,6.15
2022-10-19T16:20:02.865Z,6.55
2022-10-19T16:22:35.450Z,4.00
2022-10-19T16:25:04.890Z,3.35
2022-10-19T16:27:34.350Z,4.90
2022-10-19T16:30:03.944Z,5.63
2022-10-19T16:32:33.289Z,6.88
2022-10-19T16:35:02.665Z,2.92
2022-10-19T16:37:33.375Z,5.82
2022-10-19T16:40:02.803Z,10.30
2022-10-19T16:42:35.117Z,6.38
2022-10-19T16:45:04.687Z,6.03
2022-10-19T16:47:33.979Z,5.43
2022-10-19T16:50:04.780Z,5.75
2022-10-19T16:52:35.109Z,5.95
2022-10-19T16:55:04.605Z,7.00
2022-10-19T16:57:33.889Z,6.85
2022-10-19T17:00:03.336Z,5.57
2022-10-19T17:02:32.891Z,7.43
2022-10-19T17:05:05.426Z,4.70
2022-10-19T17:10:03.905Z,6.20
2022-10-19T17:12:33.608Z,5.05
2022-10-19T17:15:30.208Z,5.78
2022-10-19T17:17:52.464Z,5.18
2022-10-19T17:20:21.757Z,3.08
2022-10-19T17:22:54.617Z,8.25
2022-10-19T17:25:23.912Z,5.70
2022-10-19T17:27:54.456Z,3.00
2022-10-19T17:30:26.531Z,4.75
2022-10-19T17:32:55.948Z,4.30
2022-10-19T17:35:25.214Z,5.05
2022-10-19T17:37:54.489Z,4.43
2022-10-19T17:40:23.743Z,3.00
2022-10-19T17:42:53.012Z,3.40
2022-10-19T17:45:22.272Z,3.03
2022-10-19T17:47:51.598Z,3.22
2022-10-19T17:50:20.900Z,3.30
2022-10-19T17:52:50.218Z,4.10
2022-10-19T17:55:19.674Z,4.80
2022-10-19T17:57:48.943Z,3.70
2022-10-19T18:00:18.284Z,6.40
2022-10-19T18:02:48.935Z,5.28
2022-10-19T18:05:18.376Z,4.75
2022-10-19T18:07:49.439Z,5.30
2022-10-19T18:10:18.792Z,4.28
2022-10-19T18:12:48.099Z,10.55
2022-10-19T18:15:17.445Z,6.68
2022-10-19T18:17:46.725Z,4.88
2022-10-19T18:20:16.070Z,6.57
2022-10-19T18:22:45.332Z,6.82
2022-10-19T18:25:18.806Z,5.70
2022-10-19T18:27:51.211Z,3.85
2022-10-19T18:30:20.768Z,4.68
2022-10-19T18:32:53.148Z,5.65
2022-10-19T18:37:52.191Z,3.28
2022-10-19T18:40:21.443Z,11.40
2022-10-19T18:42:50.936Z,4.35
2022-10-19T18:45:20.207Z,7.57
2022-10-19T18:47:49.543Z,3.22
2022-10-19T18:50:18.925Z,6.88
2022-10-19T18:52:48.221Z,4.20
2022-10-19T18:55:17.667Z,5.95
2022-10-19T18:57:46.932Z,6.55
2022-10-19T19:00:16.783Z,5.65
2022-10-19T19:02:47.264Z,3.75
2022-10-19T19:05:16.873Z,4.18
2022-10-19T19:07:46.156Z,7.45
2022-10-19T19:10:15.789Z,5.22
2022-10-19T19:12:46.346Z,5.60
2022-10-19T19:15:15.665Z,5.30
2022-10-19T19:17:44.991Z,6.07
2022-10-19T19:20:14.354Z,4.82
2022-10-19T19:22:43.620Z,6.30
2022-10-19T19:25:12.907Z,8.95
2022-10-19T19:27:42.232Z,8.18
2022-10-19T19:30:12.766Z,5.88
2022-10-19T19:32:43.396Z,7.07
2022-10-19T19:35:12.690Z,6.32
2022-10-19T19:37:41.959Z,5.07
2022-10-19T19:40:11.780Z,4.00
2022-10-19T19:42:41.065Z,5.10
2022-10-19T19:45:11.012Z,12.88
2022-10-19T19:47:40.353Z,9.93
2022-10-19T19:50:10.243Z,4.85
2022-10-19T19:52:40.515Z,4.20
2022-10-19T19:55:10.250Z,6.47
2022-10-19T19:57:39.556Z,7.85
2022-10-19T20:00:09.422Z,7.30
2022-10-19T20:02:41.750Z,7.47
2022-10-19T20:05:12.056Z,6.28
2022-10-19T20:07:41.434Z,6.13
2022-10-19T20:10:11.008Z,6.50
2022-10-19T20:12:40.986Z,7.95
2022-10-19T20:15:10.623Z,10.63
2022-10-19T20:17:40.231Z,5.68
2022-10-19T20:20:11.415Z,7.68
2022-10-19T20:22:40.999Z,9.95
2022-10-19T20:25:10.645Z,6.65
2022-10-19T20:27:39.960Z,6.90
2022-10-19T20:30:10.041Z,10.02
2022-10-19T20:32:39.870Z,7.95
2022-10-19T20:35:09.697Z,7.85
2022-10-19T20:37:38.998Z,6.50
2022-10-19T20:40:09.085Z,12.50
2022-10-19T20:42:38.668Z,5.97
2022-10-19T20:45:08.780Z,8.95
2022-10-19T20:47:38.082Z,7.50
2022-10-19T20:50:08.012Z,8.68
2022-10-19T20:52:38.584Z,6.35
2022-10-19T20:55:09.028Z,4.90
2022-10-19T20:57:38.317Z,5.25
2022-10-19T21:00:08.228Z,6.57
2022-10-19T21:02:37.698Z,10.27
2022-10-19T21:05:07.623Z,9.55
2022-10-19T21:07:36.963Z,6.82
2022-10-19T21:10:06.425Z,9.80
2022-10-19T21:12:36.140Z,5.90
2022-10-19T21:15:05.752Z,7.68
2022-10-19T21:17:35.216Z,6.90
2022-10-19T21:20:04.507Z,6.80
2022-10-19T21:22:39.173Z,5.60
2022-10-19T21:25:08.915Z,9.52
2022-10-19T21:27:38.443Z,6.00
2022-10-19T21:30:08.197Z,8.45
2022-10-19T21:32:37.522Z,8.68
2022-10-19T21:35:07.079Z,7.45
2022-10-19T21:37:36.621Z,6.15
2022-10-19T21:40:06.330Z,7.40
2022-10-19T21:42:35.602Z,6.57
2022-10-19T21:45:25.606Z,10.98
2022-10-19T21:47:54.336Z,6.28
2022-10-19T21:50:23.567Z,9.30
2022-10-19T21:52:52.808Z,13.95
2022-10-19T21:55:22.069Z,7.93
2022-10-19T21:57:51.390Z,6.53
2022-10-19T22:00:20.619Z,10.70
2022-10-19T22:02:51.280Z,7.80
2022-10-19T22:05:20.729Z,7.57
2022-10-19T22:07:50.041Z,6.65
2022-10-19T22:10:19.372Z,9.10
2022-10-19T22:12:48.755Z,7.22
2022-10-19T22:15:18.176Z,7.38
2022-10-19T22:17:47.459Z,7.75
2022-10-19T22:20:16.765Z,6.60
2022-10-19T22:22:46.019Z,7.10
2022-10-19T22:25:15.259Z,8.05
2022-10-19T22:27:44.668Z,7.75
2022-10-19T22:30:14.058Z,9.15
2022-10-19T22:32:43.313Z,11.45
2022-10-19T22:35:12.590Z,11.63
2022-10-19T22:37:41.832Z,7.95
2022-10-19T22:40:11.526Z,9.18
2022-10-19T22:42:40.776Z,9.63
2022-10-19T22:45:10.639Z,9.05
2022-10-19T22:47:39.908Z,11.77
2022-10-19T22:50:11.866Z,9.98
2022-10-19T22:52:41.419Z,6.53
2022-10-19T22:55:10.913Z,8.00
2022-10-19T22:57:40.192Z,7.25
2022-10-19T23:00:10.345Z,8.27
2022-10-19T23:02:39.643Z,11.23
2022-10-19T23:05:09.071Z,9.07
2022-10-19T23:07:38.829Z,7.45
2022-10-19T23:10:09.196Z,9.98
2022-10-19T23:12:38.487Z,9.23
2022-10-19T23:15:08.199Z,10.07
2022-10-19T23:17:37.788Z,10.77
2022-10-19T23:20:07.613Z,8.60
2022-10-19T23:22:36.988Z,9.48
2022-10-19T23:25:06.563Z,9.63
2022-10-19T23:27:36.123Z,7.57
2022-10-19T23:30:06.835Z,11.15
2022-10-19T23:32:36.102Z,7.32
2022-10-19T23:35:05.376Z,10.68
2022-10-19T23:37:34.856Z,8.05
2022-10-19T23:40:05.262Z,8.05
2022-10-19T23:42:34.545Z,9.57
2022-10-19T23:45:03.814Z,11.57
2022-10-19T23:47:33.303Z,7.90
2022-10-19T23:50:02.907Z,8.05
2022-10-19T23:52:32.170Z,6.65
2022-10-19T23:55:01.395Z,11.10
2022-10-19T23:57:30.707Z,9.05
2022-10-19T23:59:59.999Z,12.50
